Time;durP1;ratioP1;P1;durP2;ratioP2;P2;SDS_P1;SDS_P2;PMS_P1;PMS_P2;Temp;Humidity;BMP_temperature;BMP_pressure;BME280_temperature;BME280_humidity;BME280_pressure;Samples;Min_cycle;Max_cycle;Signal;HPM_P1;HPM_P2
2023/12/17 00:01:18;;;;;;;36.03;19.03;;;;;;;;;;5013372;28;20441;-41
2023/12/17 00:03:46;;;;;;;24.93;16.60;;;;;;;;;;5013507;28;20469;-38
2023/12/17 00:06:13;;;;;;;33.80;17.70;;;;;;;;;;5013097;28;20461;-41
2023/12/17 00:08:41;;;;;;;31.30;18.20;;;;;;;;;;5013307;28;20460;-39
2023/12/17 00:11:09;;;;;;;28.30;18.67;;;;;;;;;;5004869;28;20445;-39
2023/12/17 00:13:36;;;;;;;32.60;17.70;;;;;;;;;;5013491;28;20507;-39
2023/12/17 00:16:04;;;;;;;28.80;16.93;;;;;;;;;;5012816;28;20464;-39
2023/12/17 00:18:34;;;;;;;36.43;18.90;;;;;;;;;;5012928;28;20465;-39
2023/12/17 00:21:01;;;;;;;28.63;17.63;;;;;;;;;;5012728;28;20503;-40
2023/12/17 00:23:29;;;;;;;28.60;17.13;;;;;;;;;;5013263;28;20469;-39
2023/12/17 00:25:57;;;;;;;27.13;16.80;;;;;;;;;;5012610;28;20475;-39
2023/12/17 00:28:24;;;;;;;21.20;16.90;;;;;;;;;;5012659;28;20491;-40
2023/12/17 00:30:52;;;;;;;29.30;17.10;;;;;;;;;;5013006;28;20487;-41
2023/12/17 00:33:20;;;;;;;38.63;17.27;;;;;;;;;;5013149;28;20469;-39
2023/12/17 00:35:49;;;;;;;24.60;17.10;;;;;;;;;;5012702;28;20978;-39
2023/12/17 00:38:16;;;;;;;26.83;17.77;;;;;;;;;;5012395;28;20872;-38
2023/12/17 00:40:44;;;;;;;24.13;18.03;;;;;;;;;;5012736;28;20437;-39
2023/12/17 00:43:11;;;;;;;28.50;17.10;;;;;;;;;;5012583;28;20475;-39
2023/12/17 00:45:39;;;;;;;28.33;16.90;;;;;;;;;;5012418;28;20437;-38
2023/12/17 00:48:07;;;;;;;31.33;17.07;;;;;;;;;;5012202;28;20453;-40
2023/12/17 00:50:35;;;;;;;38.73;18.80;;;;;;;;;;5012740;28;20500;-40
2023/12/17 00:53:03;;;;;;;31.77;18.90;;;;;;;;;;5012395;28;20968;-41
2023/12/17 00:55:31;;;;;;;34.30;18.27;;;;;;;;;;5012125;28;20678;-41
2023/12/17 00:57:59;;;;;;;34.60;17.17;;;;;;;;;;5012096;28;20461;-39
2023/12/17 01:00:26;;;;;;;40.97;20.20;;;;;;;;;;5012579;28;20778;-39
2023/12/17 01:02:54;;;;;;;32.23;18.50;;;;;;;;;;5012524;28;20510;-39
2023/12/17 01:05:22;;;;;;;34.83;17.50;;;;;;;;;;5012243;28;20437;-39
2023/12/17 01:07:50;;;;;;;29.17;16.43;;;;;;;;;;5011848;28;20461;-40
2023/12/17 01:10:19;;;;;;;27.40;17.93;;;;;;;;;;5012161;28;20447;-39
2023/12/17 01:12:46;;;;;;;50.50;18.47;;;;;;;;;;5012113;28;20540;-39
2023/12/17 01:15:14;;;;;;;26.30;17.50;;;;;;;;;;5004083;28;20524;-41
2023/12/17 01:17:42;;;;;;;32.23;17.30;;;;;;;;;;5012355;28;20464;-39
2023/12/17 01:20:10;;;;;;;32.53;18.67;;;;;;;;;;5011414;28;20523;-39
2023/12/17 01:22:38;;;;;;;33.87;17.40;;;;;;;;;;5010911;28;20437;-39
2023/12/17 01:25:07;;;;;;;25.30;16.33;;;;;;;;;;5012156;28;20865;-40
2023/12/17 01:27:36;;;;;;;30.07;16.17;;;;;;;;;;5012049;28;20695;-39
2023/12/17 01:30:04;;;;;;;30.60;17.90;;;;;;;;;;5011437;28;20457;-38
2023/12/17 01:32:32;;;;;;;29.70;18.53;;;;;;;;;;5011911;28;20449;-39
2023/12/17 01:34:59;;;;;;;32.23;18.23;;;;;;;;;;5011213;28;20435;-39
2023/12/17 01:37:27;;;;;;;34.07;18.10;;;;;;;;;;5012100;28;20456;-39
2023/12/17 01:39:54;;;;;;;34.37;18.53;;;;;;;;;;4994272;28;20466;-39
2023/12/17 01:42:22;;;;;;;33.90;20.13;;;;;;;;;;4992215;28;20950;-42
2023/12/17 01:44:51;;;;;;;34.07;19.20;;;;;;;;;;4992148;28;20838;-42
2023/12/17 01:47:19;;;;;;;27.87;18.60;;;;;;;;;;4992266;28;20536;-39
2023/12/17 01:49:47;;;;;;;26.63;19.33;;;;;;;;;;5007785;28;20494;-39
2023/12/17 01:52:14;;;;;;;22.87;17.47;;;;;;;;;;5003650;28;20496;-39
2023/12/17 01:54:42;;;;;;;36.13;17.90;;;;;;;;;;5011674;28;20471;-39
2023/12/17 01:57:10;;;;;;;33.90;18.23;;;;;;;;;;5011446;28;21557;-39
2023/12/17 01:59:37;;;;;;;30.93;16.83;;;;;;;;;;4996504;28;20509;-40
2023/12/17 02:02:06;;;;;;;38.00;18.10;;;;;;;;;;4991869;28;20542;-42
2023/12/17 02:04:34;;;;;;;32.10;16.80;;;;;;;;;;4992026;28;20474;-39
2023/12/17 02:07:01;;;;;;;28.13;17.07;;;;;;;;;;4991638;28;20464;-38
2023/12/17 02:09:29;;;;;;;33.93;17.27;;;;;;;;;;5004964;28;20857;-39
2023/12/17 02:11:56;;;;;;;33.70;18.30;;;;;;;;;;5011067;28;20432;-39
2023/12/17 02:14:24;;;;;;;28.53;17.37;;;;;;;;;;5011446;28;20483;-39
2023/12/17 02:16:52;;;;;;;21.87;17.40;;;;;;;;;;5010989;28;20460;-41
2023/12/17 02:19:21;;;;;;;34.73;18.83;;;;;;;;;;4998707;28;20486;-39
2023/12/17 02:21:49;;;;;;;27.13;17.70;;;;;;;;;;4991903;28;20517;-41
2023/12/17 02:24:18;;;;;;;26.90;17.93;;;;;;;;;;4983528;28;21004;-39
2023/12/17 02:26:45;;;;;;;34.37;18.07;;;;;;;;;;4991745;28;20829;-39
2023/12/17 02:29:13;;;;;;;37.43;17.53;;;;;;;;;;5002738;28;20549;-39
2023/12/17 02:31:41;;;;;;;24.30;16.40;;;;;;;;;;5011433;28;20950;-40
2023/12/17 02:34:08;;;;;;;35.83;17.70;;;;;;;;;;5013963;28;20443;-40
2023/12/17 02:36:37;;;;;;;35.53;17.83;;;;;;;;;;5014896;28;20457;-39
2023/12/17 02:39:08;;;;;;;30.93;17.10;;;;;;;;;;5003820;28;20483;-39
2023/12/17 02:41:37;;;;;;;25.20;16.50;;;;;;;;;;4995571;28;20524;-39
2023/12/17 02:44:05;;;;;;;22.87;18.23;;;;;;;;;;4995562;28;20841;-39
2023/12/17 02:46:33;;;;;;;33.10;17.33;;;;;;;;;;4995404;28;20453;-39
2023/12/17 02:49:00;;;;;;;21.10;15.80;;;;;;;;;;5004878;28;20467;-41
2023/12/17 02:51:28;;;;;;;26.40;17.67;;;;;;;;;;5015174;28;20433;-39
2023/12/17 02:53:55;;;;;;;28.63;17.67;;;;;;;;;;5015051;28;20535;-39
2023/12/17 02:56:23;;;;;;;39.37;18.27;;;;;;;;;;5014447;28;20471;-39
2023/12/17 02:58:52;;;;;;;37.30;17.93;;;;;;;;;;5005870;28;21031;-39
2023/12/17 03:01:19;;;;;;;32.83;17.67;;;;;;;;;;4987169;28;20942;-40
2023/12/17 03:03:46;;;;;;;32.70;18.60;;;;;;;;;;4995224;28;20441;-39
2023/12/17 03:06:14;;;;;;;37.47;17.47;;;;;;;;;;4994563;28;20461;-39
2023/12/17 03:08:41;;;;;;;27.83;18.43;;;;;;;;;;5001814;28;20471;-39
2023/12/17 03:11:09;;;;;;;38.03;18.77;;;;;;;;;;5014622;28;20461;-41
2023/12/17 03:13:37;;;;;;;31.70;17.70;;;;;;;;;;5014554;28;20447;-41
2023/12/17 03:16:08;;;;;;;33.70;18.00;;;;;;;;;;5014264;28;20457;-39
2023/12/17 03:18:36;;;;;;;29.73;18.07;;;;;;;;;;5007590;28;20462;-40
2023/12/17 03:21:05;;;;;;;30.43;18.60;;;;;;;;;;4994348;28;20449;-40
2023/12/17 03:23:32;;;;;;;36.77;20.37;;;;;;;;;;4994666;28;20453;-39
2023/12/17 03:26:00;;;;;;;33.90;18.30;;;;;;;;;;4994435;28;20483;-40
2023/12/17 03:28:27;;;;;;;46.67;20.77;;;;;;;;;;4999672;28;20468;-39
2023/12/17 03:30:55;;;;;;;35.10;17.90;;;;;;;;;;5014128;28;20799;-39
2023/12/17 03:33:24;;;;;;;27.30;18.37;;;;;;;;;;5014288;28;20860;-39
2023/12/17 03:35:52;;;;;;;33.77;19.50;;;;;;;;;;5013810;28;20429;-39
2023/12/17 03:38:20;;;;;;;26.30;19.00;;;;;;;;;;5009095;28;20458;-39
2023/12/17 03:40:47;;;;;;;31.20;19.17;;;;;;;;;;4994483;28;20938;-39
2023/12/17 03:43:15;;;;;;;35.00;20.20;;;;;;;;;;4994559;28;20456;-39
2023/12/17 03:45:42;;;;;;;22.63;18.37;;;;;;;;;;4993180;28;20496;-39
2023/12/17 03:48:10;;;;;;;35.23;19.27;;;;;;;;;;4996950;28;20532;-41
2023/12/17 03:50:39;;;;;;;31.00;18.50;;;;;;;;;;5013924;28;20524;-39
2023/12/17 03:53:10;;;;;;;35.10;19.13;;;;;;;;;;5014070;28;20524;-40
2023/12/17 03:55:38;;;;;;;37.67;18.00;;;;;;;;;;5013471;28;20529;-39
2023/12/17 03:58:05;;;;;;;20.53;17.30;;;;;;;;;;5010920;28;20494;-41
2023/12/17 04:00:33;;;;;;;32.63;17.90;;;;;;;;;;4994209;28;20992;-41
2023/12/17 04:03:01;;;;;;;24.00;16.80;;;;;;;;;;4993806;28;21038;-39
2023/12/17 04:05:28;;;;;;;37.97;18.57;;;;;;;;;;4994003;28;20532;-39
2023/12/17 04:07:57;;;;;;;29.60;16.60;;;;;;;;;;4994909;28;20453;-39
2023/12/17 04:10:25;;;;;;;21.10;18.37;;;;;;;;;;5005891;28;20441;-39
2023/12/17 04:12:52;;;;;;;27.90;18.23;;;;;;;;;;5013548;28;20433;-41
2023/12/17 04:15:20;;;;;;;34.80;19.53;;;;;;;;;;5013098;28;20425;-42
2023/12/17 04:17:48;;;;;;;23.87;16.80;;;;;;;;;;5012825;28;20990;-39
2023/12/17 04:20:16;;;;;;;29.00;17.57;;;;;;;;;;4993526;28;20448;-39
2023/12/17 04:22:44;;;;;;;28.83;19.73;;;;;;;;;;4993867;28;20489;-39
2023/12/17 04:25:13;;;;;;;34.27;16.50;;;;;;;;;;4993514;28;20513;-41
2023/12/17 04:27:40;;;;;;;23.60;17.40;;;;;;;;;;4993634;28;20509;-39
2023/12/17 04:30:09;;;;;;;21.73;17.87;;;;;;;;;;5012066;28;20515;-42
2023/12/17 04:32:37;;;;;;;38.97;19.33;;;;;;;;;;5013060;28;20477;-40
2023/12/17 04:35:06;;;;;;;36.60;17.80;;;;;;;;;;5012784;28;20441;-40
2023/12/17 04:37:34;;;;;;;20.33;18.07;;;;;;;;;;5013011;28;20456;-40
2023/12/17 04:40:01;;;;;;;31.57;17.10;;;;;;;;;;4994623;28;20488;-38
2023/12/17 04:42:30;;;;;;;30.50;17.40;;;;;;;;;;4993451;28;20976;-39
2023/12/17 04:45:02;;;;;;;28.07;17.23;;;;;;;;;;4993324;28;20481;-39
2023/12/17 04:47:30;;;;;;;34.10;18.30;;;;;;;;;;4993390;28;20453;-39
2023/12/17 04:49:58;;;;;;;24.33;18.03;;;;;;;;;;5010456;28;20806;-39
2023/12/17 04:52:25;;;;;;;29.17;17.67;;;;;;;;;;5004801;28;20496;-42
2023/12/17 04:54:53;;;;;;;32.30;19.00;;;;;;;;;;5012651;28;20806;-39
2023/12/17 04:57:20;;;;;;;23.10;18.27;;;;;;;;;;5012302;28;20559;-41
2023/12/17 04:59:49;;;;;;;26.20;17.93;;;;;;;;;;4995833;28;20499;-39
2023/12/17 05:02:17;;;;;;;39.20;18.83;;;;;;;;;;4992629;28;20934;-39
2023/12/17 05:04:44;;;;;;;34.33;18.80;;;;;;;;;;4992983;28;20818;-39
2023/12/17 05:07:12;;;;;;;20.73;18.30;;;;;;;;;;4992513;28;20457;-39
2023/12/17 05:09:40;;;;;;;26.50;18.00;;;;;;;;;;5007579;28;20457;-39
2023/12/17 05:12:07;;;;;;;22.27;17.67;;;;;;;;;;5012619;28;20440;-39
2023/12/17 05:14:35;;;;;;;32.20;18.87;;;;;;;;;;5012275;28;20438;-39
2023/12/17 05:17:04;;;;;;;29.40;16.63;;;;;;;;;;5012055;28;20449;-39
2023/12/17 05:19:31;;;;;;;24.53;17.63;;;;;;;;;;4997948;28;20936;-39
2023/12/17 05:21:59;;;;;;;19.43;17.13;;;;;;;;;;4992558;28;20468;-40
2023/12/17 05:24:27;;;;;;;18.57;16.60;;;;;;;;;;4992897;28;20525;-41
2023/12/17 05:26:54;;;;;;;32.50;18.53;;;;;;;;;;4992443;28;20532;-39
2023/12/17 05:29:22;;;;;;;20.70;16.90;;;;;;;;;;5004926;28;20976;-39
2023/12/17 05:31:49;;;;;;;22.03;16.27;;;;;;;;;;5012329;28;20524;-40
2023/12/17 05:34:18;;;;;;;23.37;16.70;;;;;;;;;;5012130;28;20433;-41
2023/12/17 05:36:46;;;;;;;23.43;16.60;;;;;;;;;;5011836;28;20461;-39
2023/12/17 05:39:13;;;;;;;27.33;15.40;;;;;;;;;;5000023;28;20541;-39
2023/12/17 05:41:41;;;;;;;20.20;16.97;;;;;;;;;;4992333;28;20442;-41
2023/12/17 05:44:08;;;;;;;19.60;16.47;;;;;;;;;;4992343;28;20530;-39
2023/12/17 05:46:36;;;;;;;19.43;17.70;;;;;;;;;;4992087;28;20482;-39
2023/12/17 05:49:04;;;;;;;21.40;16.60;;;;;;;;;;5002120;28;21154;-40
2023/12/17 05:51:33;;;;;;;27.33;17.07;;;;;;;;;;5012243;28;20452;-39
2023/12/17 05:54:00;;;;;;;27.53;15.97;;;;;;;;;;5012006;28;20528;-39
2023/12/17 05:56:28;;;;;;;24.83;16.30;;;;;;;;;;5011409;28;20511;-39
2023/12/17 05:58:55;;;;;;;24.73;16.83;;;;;;;;;;5002273;28;20457;-39
2023/12/17 06:01:23;;;;;;;34.83;19.37;;;;;;;;;;4992149;28;20438;-39
2023/12/17 06:03:50;;;;;;;27.20;18.43;;;;;;;;;;4992060;28;20926;-40
2023/12/17 06:06:18;;;;;;;24.17;18.97;;;;;;;;;;4991993;28;20540;-39
2023/12/17 06:08:47;;;;;;;20.23;17.13;;;;;;;;;;4999426;28;20841;-39
2023/12/17 06:11:16;;;;;;;30.10;20.13;;;;;;;;;;5011666;28;20507;-41
2023/12/17 06:13:44;;;;;;;22.57;17.73;;;;;;;;;;5011670;28;20472;-39
2023/12/17 06:16:12;;;;;;;21.53;16.17;;;;;;;;;;5011285;28;20825;-39
2023/12/17 06:18:39;;;;;;;22.27;15.97;;;;;;;;;;5004374;28;20462;-39
2023/12/17 06:21:07;;;;;;;25.80;16.17;;;;;;;;;;4990259;28;20513;-40
2023/12/17 06:23:35;;;;;;;21.20;15.47;;;;;;;;;;4992101;28;20469;-40
2023/12/17 06:26:04;;;;;;;18.80;15.73;;;;;;;;;;4991517;28;20477;-39
2023/12/17 06:28:32;;;;;;;23.43;17.63;;;;;;;;;;4997531;28;21054;-39
2023/12/17 06:31:00;;;;;;;27.57;16.23;;;;;;;;;;5011396;28;20441;-39
2023/12/17 06:33:27;;;;;;;24.73;16.43;;;;;;;;;;5011583;28;20488;-41
2023/12/17 06:35:55;;;;;;;19.43;16.70;;;;;;;;;;5011416;28;20436;-39
2023/12/17 06:38:22;;;;;;;26.77;16.87;;;;;;;;;;5006483;28;20950;-40
2023/12/17 06:40:52;;;;;;;25.37;16.47;;;;;;;;;;4991867;28;20433;-39
2023/12/17 06:43:21;;;;;;;23.13;15.80;;;;;;;;;;4991688;28;20850;-40
2023/12/17 06:45:49;;;;;;;29.23;17.80;;;;;;;;;;4991809;28;20438;-39
2023/12/17 06:48:16;;;;;;;21.10;16.90;;;;;;;;;;4995355;28;20457;-42
2023/12/17 06:50:44;;;;;;;27.77;16.20;;;;;;;;;;5011373;28;20918;-41
2023/12/17 06:53:15;;;;;;;19.73;17.73;;;;;;;;;;5011226;28;20465;-41
2023/12/17 06:55:43;;;;;;;22.50;17.60;;;;;;;;;;5010852;28;20998;-39
2023/12/17 06:58:10;;;;;;;22.67;18.70;;;;;;;;;;5007465;28;20829;-39
2023/12/17 07:00:39;;;;;;;20.40;18.00;;;;;;;;;;4991826;28;20495;-44
2023/12/17 07:03:07;;;;;;;19.83;18.33;;;;;;;;;;4991805;28;21112;-39
2023/12/17 07:05:35;;;;;;;26.23;17.93;;;;;;;;;;4991633;28;20533;-39
2023/12/17 07:08:02;;;;;;;27.20;16.80;;;;;;;;;;4993052;28;20474;-39
2023/12/17 07:10:30;;;;;;;20.00;16.83;;;;;;;;;;5011119;28;20434;-39
2023/12/17 07:12:57;;;;;;;22.17;16.60;;;;;;;;;;5011400;28;20628;-39
2023/12/17 07:15:25;;;;;;;27.33;16.07;;;;;;;;;;5011313;28;20433;-40
2023/12/17 07:17:54;;;;;;;17.50;15.43;;;;;;;;;;5009595;28;21034;-39
2023/12/17 07:20:21;;;;;;;28.30;15.13;;;;;;;;;;4992571;28;20462;-38
2023/12/17 07:22:49;;;;;;;22.87;15.20;;;;;;;;;;4995067;28;20476;-39
2023/12/17 07:25:17;;;;;;;15.93;14.50;;;;;;;;;;4994455;28;20442;-38
2023/12/17 07:27:44;;;;;;;18.37;15.30;;;;;;;;;;4995198;28;20569;-39
2023/12/17 07:30:12;;;;;;;24.77;15.50;;;;;;;;;;5014010;28;20488;-39
2023/12/17 07:32:40;;;;;;;18.00;15.80;;;;;;;;;;5014436;28;20445;-38
2023/12/17 07:35:09;;;;;;;18.43;15.50;;;;;;;;;;5014372;28;20433;-40
2023/12/17 07:37:37;;;;;;;16.40;14.70;;;;;;;;;;5002431;28;20489;-39
2023/12/17 07:40:05;;;;;;;19.33;15.80;;;;;;;;;;5009750;28;20500;-39
2023/12/17 07:42:33;;;;;;;18.80;15.07;;;;;;;;;;5014314;28;20511;-39
2023/12/17 07:45:01;;;;;;;22.17;15.83;;;;;;;;;;5014276;28;20856;-39
2023/12/17 07:47:30;;;;;;;23.90;14.50;;;;;;;;;;5013611;28;20477;-39
2023/12/17 07:49:58;;;;;;;17.53;15.00;;;;;;;;;;4995807;28;20470;-39
2023/12/17 07:52:27;;;;;;;16.33;14.80;;;;;;;;;;4994601;28;20865;-39
2023/12/17 07:54:56;;;;;;;24.33;15.40;;;;;;;;;;4994361;28;20454;-39
2023/12/17 07:57:23;;;;;;;25.43;15.30;;;;;;;;;;4994133;28;20891;-40
2023/12/17 07:59:51;;;;;;;16.87;14.60;;;;;;;;;;5010607;28;20485;-39
2023/12/17 08:02:19;;;;;;;17.67;14.40;;;;;;;;;;5013910;28;20437;-39
2023/12/17 08:04:48;;;;;;;17.60;14.63;;;;;;;;;;5013571;28;20508;-39
2023/12/17 08:07:15;;;;;;;21.80;14.57;;;;;;;;;;5013501;28;20527;-39
2023/12/17 08:09:44;;;;;;;17.70;15.87;;;;;;;;;;4997770;28;20465;-38
2023/12/17 08:12:12;;;;;;;20.03;15.97;;;;;;;;;;4993961;28;20449;-38
2023/12/17 08:14:41;;;;;;;23.17;16.17;;;;;;;;;;4993752;28;21008;-39
2023/12/17 08:17:09;;;;;;;19.17;16.00;;;;;;;;;;4993616;28;20822;-39
2023/12/17 08:19:38;;;;;;;16.60;14.97;;;;;;;;;;5000211;28;20968;-39
2023/12/17 08:22:06;;;;;;;20.47;16.07;;;;;;;;;;5013613;28;20433;-39
2023/12/17 08:24:33;;;;;;;20.13;14.70;;;;;;;;;;5013767;28;20444;-40
2023/12/17 08:27:02;;;;;;;16.53;15.00;;;;;;;;;;5013072;28;20953;-40
2023/12/17 08:29:30;;;;;;;22.43;15.80;;;;;;;;;;4997863;28;20461;-39
2023/12/17 08:31:58;;;;;;;18.00;16.00;;;;;;;;;;4992517;28;20540;-39
2023/12/17 08:34:28;;;;;;;24.03;15.73;;;;;;;;;;4993265;28;20462;-39
2023/12/17 08:36:57;;;;;;;16.57;15.07;;;;;;;;;;4993136;28;20465;-39
2023/12/17 08:39:25;;;;;;;18.13;16.40;;;;;;;;;;5006623;28;20480;-39
2023/12/17 08:41:53;;;;;;;20.47;15.53;;;;;;;;;;5012990;28;20948;-41
2023/12/17 08:44:25;;;;;;;18.53;15.37;;;;;;;;;;5012553;28;20464;-39
2023/12/17 08:46:53;;;;;;;17.53;15.10;;;;;;;;;;5012592;28;20984;-39
2023/12/17 08:49:21;;;;;;;23.30;16.23;;;;;;;;;;4999813;28;20492;-40
2023/12/17 08:51:49;;;;;;;18.10;16.27;;;;;;;;;;4993397;28;20810;-39
2023/12/17 08:54:17;;;;;;;18.93;17.03;;;;;;;;;;4993126;28;20813;-38
2023/12/17 08:56:45;;;;;;;18.77;17.03;;;;;;;;;;4992908;28;20973;-39
2023/12/17 08:59:12;;;;;;;21.80;17.83;;;;;;;;;;5004456;28;20544;-39
2023/12/17 09:01:41;;;;;;;24.27;18.43;;;;;;;;;;5004818;28;20491;-39
2023/12/17 09:04:09;;;;;;;19.97;17.97;;;;;;;;;;5012790;28;20791;-38
2023/12/17 09:06:43;;;;;;;24.97;17.83;;;;;;;;;;5010129;28;20480;-39
2023/12/17 09:09:11;;;;;;;18.97;17.00;;;;;;;;;;4995844;28;20477;-38
2023/12/17 09:11:39;;;;;;;19.70;17.80;;;;;;;;;;4989246;28;20976;-38
2023/12/17 09:14:07;;;;;;;19.50;17.47;;;;;;;;;;4990349;28;20492;-38
2023/12/17 09:16:35;;;;;;;21.43;19.10;;;;;;;;;;4989366;28;20544;-38
2023/12/17 09:19:05;;;;;;;21.77;19.40;;;;;;;;;;4999502;28;20469;-42
2023/12/17 09:21:32;;;;;;;20.73;18.17;;;;;;;;;;5009139;28;20445;-38
2023/12/17 09:24:00;;;;;;;18.23;16.70;;;;;;;;;;5008710;28;20437;-38
2023/12/17 09:26:28;;;;;;;20.77;17.20;;;;;;;;;;5008134;28;20479;-41
2023/12/17 09:28:55;;;;;;;23.73;17.20;;;;;;;;;;5008940;28;20564;-38
2023/12/17 09:31:23;;;;;;;17.33;15.80;;;;;;;;;;5007710;28;20469;-38
2023/12/17 09:33:51;;;;;;;18.77;16.80;;;;;;;;;;5009178;28;20837;-40
2023/12/17 09:36:20;;;;;;;21.13;16.80;;;;;;;;;;5008013;28;20480;-40
2023/12/17 09:38:47;;;;;;;18.33;16.53;;;;;;;;;;5009214;28;20461;-38
2023/12/17 09:41:15;;;;;;;21.57;18.07;;;;;;;;;;5008672;28;20520;-39
2023/12/17 09:43:43;;;;;;;23.43;19.13;;;;;;;;;;5008650;28;20430;-38
2023/12/17 09:46:10;;;;;;;20.90;18.90;;;;;;;;;;5008181;28;20468;-39
2023/12/17 09:48:38;;;;;;;33.10;20.43;;;;;;;;;;5009305;28;20457;-38
2023/12/17 09:51:10;;;;;;;18.67;16.97;;;;;;;;;;5009240;28;20433;-40
2023/12/17 09:53:39;;;;;;;21.03;17.50;;;;;;;;;;5009084;28;20445;-38
2023/12/17 09:56:07;;;;;;;24.63;18.30;;;;;;;;;;5007922;28;20515;-37
2023/12/17 09:58:35;;;;;;;18.63;16.93;;;;;;;;;;5008973;28;20488;-38
2023/12/17 10:01:03;;;;;;;21.20;17.67;;;;;;;;;;5008550;28;20512;-38
2023/12/17 10:03:30;;;;;;;31.63;18.30;;;;;;;;;;5007655;28;20786;-38
2023/12/17 10:05:58;;;;;;;22.10;18.10;;;;;;;;;;5007859;28;20437;-39
2023/12/17 10:08:26;;;;;;;23.23;20.97;;;;;;;;;;5008627;28;20512;-38
2023/12/17 10:10:55;;;;;;;22.17;19.83;;;;;;;;;;5008220;28;20441;-38
2023/12/17 10:13:23;;;;;;;22.23;20.03;;;;;;;;;;5008905;28;20441;-39
2023/12/17 10:15:51;;;;;;;23.07;20.70;;;;;;;;;;5007871;28;20936;-37
2023/12/17 10:18:19;;;;;;;24.70;22.10;;;;;;;;;;5008379;28;20514;-40
2023/12/17 10:20:47;;;;;;;32.50;22.20;;;;;;;;;;5009356;28;20940;-40
2023/12/17 10:23:15;;;;;;;25.50;21.80;;;;;;;;;;5009560;28;21022;-42
2023/12/17 10:25:44;;;;;;;30.73;24.67;;;;;;;;;;5007815;28;20437;-39
2023/12/17 10:28:13;;;;;;;29.13;23.10;;;;;;;;;;5008388;28;20477;-40
2023/12/17 10:30:41;;;;;;;24.93;22.40;;;;;;;;;;5007969;28;20560;-39
2023/12/17 10:33:14;;;;;;;28.80;23.97;;;;;;;;;;5008885;28;20437;-42
2023/12/17 10:35:42;;;;;;;32.23;23.70;;;;;;;;;;5007231;28;20433;-40
2023/12/17 10:38:10;;;;;;;32.93;22.33;;;;;;;;;;5007781;28;20459;-38
2023/12/17 10:40:40;;;;;;;26.47;21.77;;;;;;;;;;5008447;28;20464;-38
2023/12/17 10:43:08;;;;;;;23.43;21.23;;;;;;;;;;5008664;28;20844;-40
2023/12/17 10:45:38;;;;;;;24.47;22.20;;;;;;;;;;5006947;28;20433;-40
2023/12/17 10:48:06;;;;;;;24.67;22.27;;;;;;;;;;5007043;28;20873;-44
2023/12/17 10:50:34;;;;;;;25.97;21.33;;;;;;;;;;5007750;28;20890;-37
2023/12/17 10:53:01;;;;;;;24.13;21.50;;;;;;;;;;5008268;28;20499;-38
2023/12/17 10:55:29;;;;;;;24.97;22.37;;;;;;;;;;5009576;28;20563;-39
2023/12/17 10:57:59;;;;;;;25.50;21.47;;;;;;;;;;5010689;28;20475;-37
2023/12/17 11:00:29;;;;;;;26.80;22.37;;;;;;;;;;5011126;28;20531;-39
2023/12/17 11:02:59;;;;;;;28.77;20.73;;;;;;;;;;5011887;28;20856;-39
2023/12/17 11:05:27;;;;;;;26.87;21.50;;;;;;;;;;5011579;28;20440;-40
2023/12/17 11:07:55;;;;;;;24.10;20.80;;;;;;;;;;5009217;28;20536;-37
2023/12/17 11:10:23;;;;;;;27.00;22.33;;;;;;;;;;4991231;28;20440;-37
2023/12/17 11:12:51;;;;;;;25.70;22.97;;;;;;;;;;4993069;28;20929;-40
2023/12/17 11:15:21;;;;;;;27.13;23.10;;;;;;;;;;4992586;28;20445;-37
2023/12/17 11:17:52;;;;;;;25.97;23.30;;;;;;;;;;4991495;28;20460;-39
2023/12/17 11:20:32;;;;;;;26.17;23.50;;;;;;;;;;5012367;28;20947;-38
2023/12/17 11:23:00;;;;;;;25.03;22.70;;;;;;;;;;5012562;28;20444;-37
2023/12/17 11:25:29;;;;;;;30.27;22.53;;;;;;;;;;5012345;28;20446;-41
2023/12/17 11:27:57;;;;;;;28.10;24.37;;;;;;;;;;5010379;28;20452;-38
2023/12/17 11:30:28;;;;;;;25.80;23.43;;;;;;;;;;4992138;28;20480;-40
2023/12/17 11:32:57;;;;;;;26.03;22.20;;;;;;;;;;4990823;28;20445;-42
2023/12/17 11:35:27;;;;;;;25.33;22.63;;;;;;;;;;4988724;28;20437;-38
2023/12/17 11:37:55;;;;;;;27.17;24.60;;;;;;;;;;4991712;28;20457;-40
2023/12/17 11:40:23;;;;;;;29.40;23.70;;;;;;;;;;5011536;28;20520;-39
2023/12/17 11:42:58;;;;;;;33.23;24.40;;;;;;;;;;5003142;28;21002;-39
2023/12/17 11:45:33;;;;;;;26.67;24.27;;;;;;;;;;5009798;28;20444;-37
2023/12/17 11:48:07;;;;;;;26.90;24.03;;;;;;;;;;5002232;28;20453;-42
2023/12/17 11:50:44;;;;;;;25.83;23.53;;;;;;;;;;4991274;28;20889;-38
2023/12/17 11:53:13;;;;;;;27.30;21.73;;;;;;;;;;4991688;28;20433;-38
2023/12/17 11:55:44;;;;;;;23.47;21.13;;;;;;;;;;4989885;28;20541;-40
2023/12/17 11:58:15;;;;;;;30.67;23.63;;;;;;;;;;4994053;28;20533;-41
2023/12/17 12:00:43;;;;;;;23.73;21.20;;;;;;;;;;5010560;28;20461;-39
2023/12/17 12:03:11;;;;;;;23.77;21.10;;;;;;;;;;5011485;28;20425;-41
2023/12/17 12:05:38;;;;;;;24.10;21.70;;;;;;;;;;5010293;28;20449;-38
2023/12/17 12:08:08;;;;;;;24.63;21.50;;;;;;;;;;5008082;28;20451;-39
2023/12/17 12:10:36;;;;;;;23.70;20.40;;;;;;;;;;4990887;28;20904;-39
2023/12/17 12:13:04;;;;;;;23.00;20.60;;;;;;;;;;4990444;28;21008;-42
2023/12/17 12:15:31;;;;;;;23.47;20.73;;;;;;;;;;4990185;28;20438;-39
2023/12/17 12:17:59;;;;;;;24.80;19.77;;;;;;;;;;4990827;28;20458;-37
2023/12/17 12:20:34;;;;;;;24.90;22.20;;;;;;;;;;5009413;28;21122;-38
2023/12/17 12:23:08;;;;;;;23.40;21.30;;;;;;;;;;5009251;28;20516;-40
2023/12/17 12:25:38;;;;;;;22.93;20.67;;;;;;;;;;5009656;28;20437;-40
2023/12/17 12:28:06;;;;;;;27.53;21.50;;;;;;;;;;5005748;28;20495;-40
2023/12/17 12:30:34;;;;;;;25.20;22.70;;;;;;;;;;4990222;28;21083;-38
2023/12/17 12:33:11;;;;;;;23.00;20.80;;;;;;;;;;4990907;28;20913;-43
2023/12/17 12:35:40;;;;;;;24.13;22.03;;;;;;;;;;4991250;28;20993;-39
2023/12/17 12:38:25;;;;;;;23.70;21.73;;;;;;;;;;4992395;28;20553;-41
2023/12/17 12:40:55;;;;;;;25.57;21.83;;;;;;;;;;5011327;28;20465;-39
2023/12/17 12:43:24;;;;;;;25.40;23.10;;;;;;;;;;5010137;28;20437;-38
2023/12/17 12:45:52;;;;;;;28.07;22.97;;;;;;;;;;5008271;28;20503;-37
2023/12/17 12:48:20;;;;;;;23.33;21.23;;;;;;;;;;5004594;28;20822;-40
2023/12/17 12:50:49;;;;;;;33.50;22.87;;;;;;;;;;4989168;28;21011;-40
2023/12/17 12:53:18;;;;;;;23.43;21.03;;;;;;;;;;4988838;28;20469;-38
2023/12/17 12:55:54;;;;;;;27.30;22.60;;;;;;;;;;4990480;28;20453;-40
2023/12/17 12:58:22;;;;;;;25.90;23.17;;;;;;;;;;4993524;28;20984;-38
2023/12/17 13:00:50;;;;;;;23.70;21.60;;;;;;;;;;5005361;28;20433;-42
2023/12/17 13:03:19;;;;;;;25.60;21.53;;;;;;;;;;5009452;28;20809;-40
2023/12/17 13:05:47;;;;;;;23.07;20.87;;;;;;;;;;5008681;28;20445;-37
2023/12/17 13:08:15;;;;;;;29.20;22.67;;;;;;;;;;5005256;28;20917;-37
2023/12/17 13:10:43;;;;;;;25.30;22.90;;;;;;;;;;4989256;28;20567;-41
2023/12/17 13:13:12;;;;;;;24.77;22.10;;;;;;;;;;4988905;28;20438;-40
2023/12/17 13:15:42;;;;;;;25.83;23.23;;;;;;;;;;4989102;28;20445;-40
2023/12/17 13:18:10;;;;;;;26.17;22.90;;;;;;;;;;4991865;28;21043;-37
2023/12/17 13:20:38;;;;;;;26.13;23.40;;;;;;;;;;5008395;28;20460;-42
2023/12/17 13:23:06;;;;;;;25.53;23.13;;;;;;;;;;5008831;28;20504;-38
2023/12/17 13:25:34;;;;;;;29.17;24.23;;;;;;;;;;5007712;28;20445;-41
2023/12/17 13:28:02;;;;;;;27.70;24.77;;;;;;;;;;5005663;28;20848;-38
2023/12/17 13:30:31;;;;;;;25.23;22.67;;;;;;;;;;4989196;28;20552;-41
2023/12/17 13:33:04;;;;;;;25.10;22.30;;;;;;;;;;4981195;28;20442;-38
2023/12/17 13:35:32;;;;;;;33.10;24.83;;;;;;;;;;4988005;28;20434;-37
2023/12/17 13:38:00;;;;;;;29.80;23.30;;;;;;;;;;4989360;28;20488;-38
2023/12/17 13:40:29;;;;;;;25.60;23.10;;;;;;;;;;5007490;28;20434;-40
2023/12/17 13:42:56;;;;;;;24.80;22.40;;;;;;;;;;5008459;28;20468;-37
2023/12/17 13:45:24;;;;;;;44.40;22.63;;;;;;;;;;5009471;28;20439;-39
2023/12/17 13:47:53;;;;;;;24.33;22.20;;;;;;;;;;5006336;28;21015;-38
2023/12/17 13:50:21;;;;;;;26.00;23.33;;;;;;;;;;4987866;28;20473;-38
2023/12/17 13:52:49;;;;;;;33.00;23.83;;;;;;;;;;4988797;28;20463;-38
2023/12/17 13:55:16;;;;;;;24.70;22.10;;;;;;;;;;4989332;28;20465;-38
2023/12/17 13:57:44;;;;;;;31.30;24.07;;;;;;;;;;4987245;28;20454;-38
2023/12/17 14:00:14;;;;;;;28.13;22.83;;;;;;;;;;5007622;28;20461;-38
2023/12/17 14:02:42;;;;;;;36.13;25.50;;;;;;;;;;5007860;28;20448;-40
2023/12/17 14:05:12;;;;;;;36.37;24.70;;;;;;;;;;5007235;28;20524;-39
2023/12/17 14:07:41;;;;;;;35.93;25.60;;;;;;;;;;5007895;28;20809;-40
2023/12/17 14:10:10;;;;;;;29.53;25.47;;;;;;;;;;4987904;28;20470;-40
2023/12/17 14:12:37;;;;;;;29.53;25.90;;;;;;;;;;4988410;28;20438;-38
2023/12/17 14:15:06;;;;;;;27.20;23.70;;;;;;;;;;4988972;28;20492;-38
2023/12/17 14:17:34;;;;;;;27.00;24.37;;;;;;;;;;4988013;28;20983;-38
2023/12/17 14:20:01;;;;;;;26.97;22.70;;;;;;;;;;5006359;28;20468;-38
2023/12/17 14:22:36;;;;;;;26.03;22.53;;;;;;;;;;5008659;28;20437;-38